createdAt,value
2022-08-29T00:01:01.082Z,20.03
2022-08-29T00:03:32.930Z,19.97
2022-08-29T00:06:03.607Z,19.95
2022-08-29T00:08:32.818Z,19.92
2022-08-29T00:11:01.865Z,19.94
2022-08-29T00:13:36.192Z,19.90
2022-08-29T00:16:05.779Z,19.86
2022-08-29T00:18:43.891Z,19.82
2022-08-29T00:21:13.359Z,19.81
2022-08-29T00:23:42.384Z,19.83
2022-08-29T00:28:51.285Z,19.83
2022-08-29T00:31:25.582Z,19.89
2022-08-29T00:33:57.253Z,19.89
2022-08-29T00:36:27.293Z,20.15
2022-08-29T00:38:59.852Z,20.21
2022-08-29T00:41:28.945Z,20.23
2022-08-29T00:43:58.212Z,20.12
2022-08-29T00:46:56.277Z,20.22
2022-08-29T00:49:38.807Z,20.25
2022-08-29T00:52:13.470Z,20.30
2022-08-29T00:54:45.224Z,20.33
2022-08-29T00:57:21.660Z,20.37
2022-08-29T00:59:52.694Z,20.31
2022-08-29T01:02:22.389Z,20.33
2022-08-29T01:04:53.867Z,20.19
2022-08-29T01:07:28.706Z,20.24
2022-08-29T01:09:57.912Z,20.21
2022-08-29T01:12:26.649Z,20.22
2022-08-29T01:14:58.597Z,20.21
2022-08-29T01:17:29.050Z,20.30
2022-08-29T01:20:05.480Z,20.14
2022-08-29T01:22:47.063Z,20.13
2022-08-29T01:25:23.145Z,20.12
2022-08-29T01:28:00.408Z,20.10
2022-08-29T01:30:35.201Z,20.07
2022-08-29T01:33:04.428Z,20.00
2022-08-29T01:35:34.019Z,19.97
2022-08-29T01:38:09.146Z,19.96
2022-08-29T01:40:40.799Z,19.88
2022-08-29T01:43:09.695Z,20.02
2022-08-29T01:48:14.526Z,19.91
2022-08-29T01:50:44.042Z,19.87
2022-08-29T01:55:50.208Z,19.82
2022-08-29T01:58:19.669Z,19.83
2022-08-29T02:00:49.157Z,19.88
2022-08-29T02:03:18.685Z,19.89
2022-08-29T02:05:48.603Z,19.90
2022-08-29T02:08:20.370Z,19.89
2022-08-29T02:10:51.929Z,19.94
2022-08-29T02:13:21.127Z,19.93
2022-08-29T02:15:50.263Z,19.79
2022-08-29T02:18:20.229Z,19.83
2022-08-29T02:20:50.326Z,19.74
2022-08-29T02:23:30.507Z,19.81
2022-08-29T02:26:02.502Z,19.72
2022-08-29T02:28:32.013Z,19.72
2022-08-29T02:31:01.517Z,19.81
2022-08-29T02:33:36.232Z,19.74
2022-08-29T02:36:08.387Z,19.76
2022-08-29T02:38:38.146Z,19.89
2022-08-29T02:41:14.050Z,19.97
2022-08-29T02:43:49.588Z,19.99
2022-08-29T02:46:20.470Z,19.99
2022-08-29T02:48:58.237Z,19.93
2022-08-29T02:51:32.568Z,19.89
2022-08-29T02:54:02.914Z,19.93
2022-08-29T02:56:33.928Z,20.00
2022-08-29T02:59:03.026Z,20.12
2022-08-29T03:01:33.022Z,20.18
2022-08-29T03:04:08.987Z,20.21
2022-08-29T03:06:38.175Z,20.14
2022-08-29T03:09:08.156Z,20.20
2022-08-29T03:11:39.463Z,20.21
2022-08-29T03:14:08.802Z,20.14
2022-08-29T03:16:38.663Z,20.21
2022-08-29T03:19:07.834Z,20.22
2022-08-29T03:21:37.064Z,20.23
2022-08-29T03:24:06.319Z,20.21
2022-08-29T03:26:42.522Z,20.20
2022-08-29T03:29:16.630Z,20.20
2022-08-29T03:31:46.657Z,20.16
2022-08-29T03:34:16.270Z,20.07
2022-08-29T03:36:45.484Z,20.06
2022-08-29T03:39:14.601Z,20.06
2022-08-29T03:41:50.732Z,20.07
2022-08-29T03:44:21.768Z,20.06
2022-08-29T03:46:51.058Z,20.03
2022-08-29T03:49:20.190Z,20.08
2022-08-29T03:51:49.623Z,20.08
2022-08-29T03:54:18.726Z,20.12
2022-08-29T03:56:48.231Z,20.19
2022-08-29T03:59:20.323Z,20.25
2022-08-29T04:01:49.751Z,20.21
2022-08-29T04:04:32.782Z,20.29
2022-08-29T04:07:08.461Z,20.33
2022-08-29T04:09:39.275Z,20.36
2022-08-29T04:12:10.933Z,20.40
2022-08-29T04:14:48.144Z,20.48
2022-08-29T04:17:17.271Z,20.44
2022-08-29T04:19:48.948Z,20.31
2022-08-29T04:22:19.439Z,20.37
2022-08-29T04:24:48.545Z,20.44
2022-08-29T04:27:17.620Z,20.55
2022-08-29T04:29:49.810Z,20.38
2022-08-29T04:32:19.524Z,20.69
2022-08-29T04:34:48.694Z,20.86
2022-08-29T04:39:58.489Z,21.18
2022-08-29T04:42:28.273Z,21.14
2022-08-29T04:44:59.573Z,21.20
2022-08-29T04:47:28.843Z,21.11
2022-08-29T04:49:58.586Z,20.97
2022-08-29T04:52:29.165Z,20.86
2022-08-29T04:54:59.065Z,20.83
2022-08-29T04:57:29.146Z,20.89
2022-08-29T05:00:01.080Z,20.92
2022-08-29T05:02:30.390Z,20.94
2022-08-29T05:04:59.482Z,21.13
2022-08-29T05:07:28.978Z,21.26
2022-08-29T05:10:00.569Z,21.36
2022-08-29T05:12:36.164Z,21.49
2022-08-29T05:15:08.852Z,21.58
2022-08-29T05:17:43.625Z,21.74
2022-08-29T05:20:17.793Z,21.81
2022-08-29T05:22:46.989Z,21.76
2022-08-29T05:25:18.475Z,21.79
2022-08-29T05:27:48.132Z,22.18
2022-08-29T05:30:35.214Z,22.19
2022-08-29T05:33:05.300Z,22.19
2022-08-29T05:35:34.734Z,22.24
2022-08-29T05:38:09.186Z,22.28
2022-08-29T05:40:39.415Z,22.37
2022-08-29T05:43:09.710Z,22.57
2022-08-29T05:45:46.003Z,22.76
2022-08-29T05:48:16.939Z,23.05
2022-08-29T05:50:46.490Z,23.34
2022-08-29T05:53:18.886Z,23.62
2022-08-29T05:55:48.149Z,23.95
2022-08-29T05:58:17.932Z,24.03
2022-08-29T06:00:50.556Z,24.11
2022-08-29T06:03:20.520Z,24.23
2022-08-29T06:05:53.446Z,24.22
2022-08-29T06:08:22.925Z,24.07
2022-08-29T06:10:52.069Z,24.19
2022-08-29T06:13:21.487Z,24.32
2022-08-29T06:15:53.074Z,24.27
2022-08-29T06:18:34.337Z,24.32
2022-08-29T06:21:06.671Z,24.34
2022-08-29T06:23:42.631Z,24.26
2022-08-29T06:26:13.678Z,24.30
2022-08-29T06:28:45.493Z,24.40
2022-08-29T06:31:20.298Z,24.50
2022-08-29T06:33:51.880Z,24.73
2022-08-29T06:36:20.746Z,24.97
2022-08-29T06:38:50.363Z,24.93
2022-08-29T06:41:20.283Z,25.06
2022-08-29T06:43:50.876Z,25.18
2022-08-29T06:46:29.774Z,25.24
2022-08-29T06:49:00.461Z,25.16
2022-08-29T06:51:37.659Z,25.05
2022-08-29T06:54:13.716Z,25.08
2022-08-29T06:56:46.083Z,25.33
2022-08-29T06:59:15.434Z,25.47
2022-08-29T07:01:47.553Z,25.67
2022-08-29T07:04:20.619Z,25.78
2022-08-29T07:06:51.016Z,25.93
2022-08-29T07:09:20.273Z,26.12
2022-08-29T07:11:49.404Z,26.27
2022-08-29T07:14:18.477Z,26.57
2022-08-29T07:16:49.750Z,26.86
2022-08-29T07:19:24.061Z,26.91
2022-08-29T07:21:53.934Z,26.99
2022-08-29T07:24:27.509Z,26.97
2022-08-29T07:26:58.797Z,26.91
2022-08-29T07:29:27.496Z,27.16
2022-08-29T07:31:58.453Z,26.91
2022-08-29T07:34:27.851Z,26.90
2022-08-29T07:36:56.949Z,26.96
2022-08-29T07:39:26.434Z,27.00
2022-08-29T07:41:55.639Z,26.92
2022-08-29T07:44:24.766Z,26.76
2022-08-29T07:47:07.210Z,26.80
2022-08-29T07:49:41.493Z,26.83
2022-08-29T07:52:12.002Z,26.88
2022-08-29T07:54:41.160Z,26.81
2022-08-29T07:57:10.202Z,26.74
2022-08-29T07:59:41.595Z,26.71
2022-08-29T08:02:13.291Z,26.70
2022-08-29T08:04:42.665Z,26.71
2022-08-29T08:07:16.712Z,26.74
2022-08-29T08:09:46.804Z,26.67
2022-08-29T08:12:22.667Z,26.59
2022-08-29T08:14:51.907Z,26.50
2022-08-29T08:17:23.025Z,26.61
2022-08-29T08:19:53.111Z,26.81
2022-08-29T08:22:22.230Z,26.85
2022-08-29T08:24:51.440Z,26.87
2022-08-29T08:27:20.739Z,26.63
2022-08-29T08:29:49.778Z,26.61
2022-08-29T08:32:18.867Z,26.70
2022-08-29T08:34:50.125Z,26.62
2022-08-29T08:37:28.019Z,26.46
2022-08-29T08:40:04.460Z,26.53
2022-08-29T08:42:42.324Z,26.84
2022-08-29T08:45:13.597Z,26.96
2022-08-29T08:47:47.061Z,27.02
2022-08-29T08:50:30.843Z,27.03
2022-08-29T08:53:07.536Z,26.94
2022-08-29T08:55:42.853Z,26.99
2022-08-29T08:58:28.962Z,26.82
2022-08-29T09:01:03.103Z,26.63
2022-08-29T09:04:05.123Z,26.52
2022-08-29T09:06:55.148Z,26.44
2022-08-29T09:09:35.475Z,26.29
2022-08-29T09:12:17.825Z,26.24
2022-08-29T09:14:59.773Z,26.23
2022-08-29T09:17:36.705Z,26.24
2022-08-29T09:20:10.371Z,26.22
2022-08-29T09:22:44.318Z,26.25
2022-08-29T09:25:14.885Z,26.43
2022-08-29T09:27:49.964Z,26.66
2022-08-29T09:30:26.207Z,26.99
2022-08-29T09:33:00.322Z,27.32
2022-08-29T09:35:36.670Z,27.64
2022-08-29T09:38:14.517Z,27.99
2022-08-29T09:40:54.266Z,28.32
2022-08-29T09:43:28.624Z,28.54
2022-08-29T09:46:18.364Z,29.10
2022-08-29T09:48:49.798Z,29.06
2022-08-29T09:51:29.804Z,29.11
2022-08-29T09:54:23.012Z,29.02
2022-08-29T09:56:56.217Z,28.71
2022-08-29T09:59:33.485Z,28.51
2022-08-29T10:02:20.654Z,28.35
2022-08-29T10:04:57.876Z,28.12
2022-08-29T10:07:29.465Z,27.99
2022-08-29T10:10:03.579Z,27.88
2022-08-29T10:12:49.083Z,27.86
2022-08-29T10:15:46.581Z,27.83
2022-08-29T10:18:34.039Z,27.76
2022-08-29T10:21:14.345Z,27.81
2022-08-29T10:24:15.938Z,27.85
2022-08-29T10:27:02.749Z,27.79
2022-08-29T10:29:48.597Z,27.57
2022-08-29T10:32:35.670Z,27.42
2022-08-29T10:35:13.403Z,27.42
2022-08-29T10:37:56.626Z,27.71
2022-08-29T10:40:30.720Z,27.93
2022-08-29T10:43:25.883Z,27.90
2022-08-29T10:46:20.270Z,27.66
2022-08-29T10:48:59.927Z,27.60
2022-08-29T10:51:40.298Z,27.66
2022-08-29T10:54:20.844Z,27.69
2022-08-29T10:56:50.924Z,27.65
2022-08-29T10:59:34.199Z,27.62
2022-08-29T11:02:10.771Z,27.69
2022-08-29T11:04:50.575Z,27.51
2022-08-29T11:07:25.506Z,27.42
2022-08-29T11:09:58.481Z,27.18
2022-08-29T11:12:36.034Z,27.09
2022-08-29T11:15:15.934Z,27.07
2022-08-29T11:17:57.372Z,27.19
2022-08-29T11:20:28.908Z,27.44
2022-08-29T11:23:03.150Z,27.41
2022-08-29T11:25:46.592Z,27.41
2022-08-29T11:28:26.607Z,27.38
2022-08-29T11:31:11.741Z,27.37
2022-08-29T11:33:49.087Z,27.43
2022-08-29T11:36:32.398Z,27.57
2022-08-29T11:39:31.663Z,27.70
2022-08-29T11:42:08.033Z,27.79
2022-08-29T11:44:40.802Z,27.72
2022-08-29T11:47:41.163Z,27.83
2022-08-29T11:50:24.133Z,27.54
2022-08-29T11:52:57.137Z,27.05
2022-08-29T11:55:35.349Z,26.71
2022-08-29T11:58:46.372Z,26.55
2022-08-29T12:01:50.406Z,26.37
2022-08-29T12:04:56.789Z,26.18
2022-08-29T12:07:37.160Z,26.00
2022-08-29T12:10:09.603Z,26.08
2022-08-29T12:12:43.469Z,26.03
2022-08-29T12:15:54.394Z,26.09
2022-08-29T12:18:46.823Z,25.92
2022-08-29T12:21:46.767Z,25.79
2022-08-29T12:24:57.264Z,25.72
2022-08-29T12:27:59.323Z,25.68
2022-08-29T12:30:28.837Z,25.69
2022-08-29T12:33:10.184Z,25.72
2022-08-29T12:36:10.523Z,25.76
2022-08-29T12:38:55.797Z,25.74
2022-08-29T12:41:46.281Z,25.73
2022-08-29T12:44:17.858Z,25.86
2022-08-29T12:46:52.190Z,25.86
2022-08-29T12:49:25.035Z,26.05
2022-08-29T12:57:25.953Z,25.70
2022-08-29T12:59:58.784Z,25.69
2022-08-29T13:02:32.250Z,25.74
2022-08-29T13:05:02.295Z,25.76
2022-08-29T13:10:20.167Z,25.76
2022-08-29T13:12:51.666Z,25.68
2022-08-29T13:15:28.667Z,25.64
2022-08-29T13:18:01.605Z,25.59
2022-08-29T13:20:48.793Z,25.66
2022-08-29T13:23:27.471Z,25.58
2022-08-29T13:26:00.834Z,25.53
2022-08-29T13:28:37.920Z,25.56
2022-08-29T13:31:26.492Z,25.52
2022-08-29T13:34:26.031Z,25.54
2022-08-29T13:37:02.059Z,25.46
2022-08-29T13:39:45.432Z,25.41
2022-08-29T13:42:27.077Z,25.23
2022-08-29T13:45:25.873Z,25.26
2022-08-29T13:48:15.029Z,25.22
2022-08-29T13:50:49.643Z,25.24
2022-08-29T13:53:18.858Z,25.15
2022-08-29T13:55:48.063Z,25.08
2022-08-29T13:58:20.734Z,25.03
2022-08-29T14:00:53.443Z,24.95
2022-08-29T14:03:23.443Z,24.79
2022-08-29T14:05:55.899Z,24.84
2022-08-29T14:08:26.235Z,24.85
2022-08-29T14:11:00.383Z,24.83
2022-08-29T14:16:08.107Z,24.92
2022-08-29T14:18:37.589Z,24.87
2022-08-29T14:21:06.761Z,24.84
2022-08-29T14:23:36.368Z,24.82
2022-08-29T14:26:06.604Z,24.86
2022-08-29T14:28:43.876Z,24.85
2022-08-29T14:31:18.768Z,24.83
2022-08-29T14:33:52.997Z,24.81
2022-08-29T14:36:25.634Z,24.74
2022-08-29T14:39:04.165Z,24.60
2022-08-29T14:41:33.278Z,24.73
2022-08-29T14:44:02.711Z,24.76
2022-08-29T14:46:34.002Z,24.74
2022-08-29T14:49:04.255Z,24.69
2022-08-29T14:51:33.562Z,24.64
2022-08-29T14:54:03.099Z,24.49
2022-08-29T14:56:48.111Z,24.55
2022-08-29T14:59:18.635Z,24.57
2022-08-29T15:01:54.552Z,24.57
2022-08-29T15:04:35.457Z,24.55
2022-08-29T15:07:09.920Z,24.45
2022-08-29T15:09:41.335Z,24.42
2022-08-29T15:12:10.208Z,24.48
2022-08-29T15:14:42.067Z,24.26
2022-08-29T15:17:14.446Z,24.22
2022-08-29T15:22:37.958Z,24.12
2022-08-29T15:25:08.534Z,24.07
2022-08-29T15:27:37.669Z,24.03
2022-08-29T15:30:07.909Z,23.99
2022-08-29T15:32:40.355Z,23.98
2022-08-29T15:35:14.169Z,23.88
2022-08-29T15:37:44.716Z,23.79
2022-08-29T15:40:14.541Z,23.63
2022-08-29T15:42:50.034Z,23.59
2022-08-29T15:45:19.157Z,23.53
2022-08-29T15:47:54.385Z,23.48
2022-08-29T15:50:24.660Z,23.37
2022-08-29T15:52:54.178Z,23.27
2022-08-29T15:55:25.043Z,23.32
2022-08-29T15:57:54.308Z,23.17
2022-08-29T16:00:30.639Z,22.99
2022-08-29T16:03:10.390Z,22.95
2022-08-29T16:05:40.631Z,22.84
2022-08-29T16:08:10.593Z,22.72
2022-08-29T16:10:46.064Z,22.63
2022-08-29T16:13:15.266Z,22.56
2022-08-29T16:15:44.495Z,22.45
2022-08-29T16:18:15.600Z,22.42
2022-08-29T16:20:44.871Z,22.37
2022-08-29T16:23:15.580Z,22.24
2022-08-29T16:25:49.897Z,22.13
2022-08-29T16:28:19.298Z,22.10
2022-08-29T16:30:52.721Z,22.05
2022-08-29T16:33:29.594Z,22.04
2022-08-29T16:36:00.284Z,21.87
2022-08-29T16:38:32.898Z,21.96
2022-08-29T16:41:08.209Z,21.91
2022-08-29T16:43:39.185Z,21.84
2022-08-29T16:46:09.331Z,21.85
2022-08-29T16:48:41.147Z,21.82
2022-08-29T16:51:10.869Z,21.76
2022-08-29T16:53:40.905Z,21.72
2022-08-29T16:56:13.737Z,21.67
2022-08-29T16:58:56.660Z,21.66
2022-08-29T17:01:25.942Z,21.64
2022-08-29T17:03:57.276Z,21.58
2022-08-29T17:06:26.494Z,21.56
2022-08-29T17:11:27.319Z,21.46
2022-08-29T17:13:55.049Z,21.41
2022-08-29T17:16:23.864Z,21.43
2022-08-29T17:18:53.327Z,21.37
2022-08-29T17:21:30.010Z,21.31
2022-08-29T17:23:59.720Z,21.19
2022-08-29T17:26:34.633Z,21.30
2022-08-29T17:29:09.137Z,21.24
2022-08-29T17:31:41.249Z,21.21
2022-08-29T17:34:16.746Z,21.16
2022-08-29T17:36:49.191Z,21.12
2022-08-29T17:39:20.036Z,21.10
2022-08-29T17:41:52.299Z,21.04
2022-08-29T17:44:22.043Z,21.14
2022-08-29T17:46:56.608Z,21.18
2022-08-29T17:49:27.082Z,21.16
2022-08-29T17:51:58.873Z,21.10
2022-08-29T17:54:28.417Z,21.13
2022-08-29T17:56:59.592Z,21.07
2022-08-29T17:59:35.740Z,21.03
2022-08-29T18:02:05.750Z,21.00
2022-08-29T18:04:34.965Z,20.99
2022-08-29T18:07:06.413Z,20.99
2022-08-29T18:09:35.977Z,20.92
2022-08-29T18:12:05.705Z,20.88
2022-08-29T18:14:34.935Z,20.84
2022-08-29T18:17:04.211Z,20.83
2022-08-29T18:19:33.742Z,20.80
2022-08-29T18:22:02.981Z,20.76
2022-08-29T18:24:39.443Z,20.73
2022-08-29T18:27:08.736Z,20.69
2022-08-29T18:29:38.061Z,20.60
2022-08-29T18:34:47.693Z,20.55
2022-08-29T18:37:17.660Z,20.31
2022-08-29T18:39:48.956Z,20.37
2022-08-29T18:42:37.152Z,20.35
2022-08-29T18:45:10.081Z,20.33
2022-08-29T18:47:39.622Z,20.24
2022-08-29T18:50:25.103Z,20.21
2022-08-29T18:52:55.044Z,20.15
2022-08-29T18:55:28.521Z,20.10
2022-08-29T18:57:58.308Z,20.06
2022-08-29T19:00:28.472Z,19.98
2022-08-29T19:05:42.222Z,19.87
2022-08-29T19:08:11.711Z,19.81
2022-08-29T19:10:42.975Z,19.80
2022-08-29T19:13:12.253Z,19.80
2022-08-29T19:15:48.071Z,19.72
2022-08-29T19:18:18.744Z,19.74
2022-08-29T19:21:01.189Z,19.71
2022-08-29T19:23:32.289Z,19.71
2022-08-29T19:26:07.608Z,19.71
2022-08-29T19:28:37.026Z,19.72
2022-08-29T19:31:06.497Z,19.71
2022-08-29T19:33:36.713Z,19.69
2022-08-29T19:36:13.932Z,19.66
2022-08-29T19:38:43.796Z,19.66
2022-08-29T19:41:17.125Z,19.66
2022-08-29T19:43:46.423Z,19.52
2022-08-29T19:46:18.364Z,19.56
2022-08-29T19:48:50.864Z,19.62
2022-08-29T19:51:24.742Z,19.62
2022-08-29T19:53:56.256Z,19.55
2022-08-29T19:56:28.781Z,19.41
2022-08-29T19:58:59.135Z,19.41
2022-08-29T20:01:29.040Z,19.37
2022-08-29T20:03:58.211Z,19.35
2022-08-29T20:06:27.732Z,19.28
2022-08-29T20:08:58.272Z,19.31
2022-08-29T20:11:30.560Z,19.23
2022-08-29T20:14:07.315Z,19.35
2022-08-29T20:16:41.336Z,19.42
2022-08-29T20:19:11.117Z,19.42
2022-08-29T20:21:40.642Z,19.41
2022-08-29T20:24:15.472Z,19.38
2022-08-29T20:26:49.374Z,19.34
2022-08-29T20:29:26.752Z,19.28
2022-08-29T20:31:57.330Z,19.25
2022-08-29T20:34:30.064Z,19.18
2022-08-29T20:37:09.953Z,19.24
2022-08-29T20:39:46.431Z,19.17
2022-08-29T20:42:21.477Z,19.23
2022-08-29T20:44:50.858Z,19.17
2022-08-29T20:47:22.232Z,19.05
2022-08-29T20:49:52.140Z,19.05
2022-08-29T20:52:21.660Z,19.06
2022-08-29T20:54:51.320Z,19.09
2022-08-29T20:57:22.425Z,19.05
2022-08-29T20:59:53.624Z,19.08
2022-08-29T21:02:28.081Z,19.19
2022-08-29T21:05:16.105Z,19.25
2022-08-29T21:07:47.132Z,19.28
2022-08-29T21:10:17.104Z,19.33
2022-08-29T21:12:48.285Z,19.39
2022-08-29T21:15:17.634Z,19.36
2022-08-29T21:17:46.876Z,19.46
2022-08-29T21:20:16.331Z,19.50
2022-08-29T21:22:45.640Z,19.52
2022-08-29T21:25:20.238Z,19.55
2022-08-29T21:27:51.476Z,19.61
2022-08-29T21:32:56.540Z,19.66
2022-08-29T21:35:25.696Z,19.70
2022-08-29T21:37:55.011Z,19.67
2022-08-29T21:40:25.471Z,19.66
2022-08-29T21:42:56.772Z,19.64
2022-08-29T21:45:25.915Z,19.61
2022-08-29T21:47:57.365Z,19.58
2022-08-29T21:50:27.174Z,19.68
2022-08-29T21:52:56.550Z,19.54
2022-08-29T21:55:26.429Z,19.49
2022-08-29T21:57:59.283Z,19.46
2022-08-29T22:00:32.115Z,19.42
2022-08-29T22:03:02.951Z,19.37
2022-08-29T22:05:40.761Z,19.38
2022-08-29T22:08:13.228Z,19.39
2022-08-29T22:10:44.741Z,19.28
2022-08-29T22:13:16.284Z,19.41
2022-08-29T22:16:10.173Z,19.38
2022-08-29T22:18:39.364Z,19.45
2022-08-29T22:21:13.379Z,19.46
2022-08-29T22:26:19.376Z,19.48
2022-08-29T22:28:50.815Z,19.50
2022-08-29T22:31:20.655Z,19.53
2022-08-29T22:33:50.803Z,19.51
2022-08-29T22:36:22.899Z,19.50
2022-08-29T22:38:56.666Z,19.50
2022-08-29T22:41:32.165Z,19.26
2022-08-29T22:44:42.398Z,19.31
2022-08-29T22:46:53.592Z,19.38
2022-08-29T22:49:25.538Z,19.34
2022-08-29T22:52:02.640Z,19.32
2022-08-29T22:54:41.422Z,19.32
2022-08-29T22:57:13.583Z,19.30
2022-08-29T22:59:45.793Z,19.26
2022-08-29T23:02:15.554Z,19.20
2022-08-29T23:04:47.108Z,19.13
2022-08-29T23:07:17.078Z,19.11
2022-08-29T23:09:46.390Z,19.17
2022-08-29T23:12:17.099Z,19.17
2022-08-29T23:14:48.512Z,19.21
2022-08-29T23:17:19.568Z,19.18
2022-08-29T23:19:49.949Z,19.12
2022-08-29T23:22:25.578Z,19.16
2022-08-29T23:24:58.838Z,19.15
2022-08-29T23:27:29.275Z,19.05
2022-08-29T23:30:13.944Z,19.13
2022-08-29T23:32:46.996Z,19.07
2022-08-29T23:35:16.269Z,19.10
2022-08-29T23:37:46.872Z,19.09
2022-08-29T23:40:16.259Z,19.12
2022-08-29T23:42:50.650Z,19.12
2022-08-29T23:45:22.012Z,18.96
2022-08-29T23:47:52.018Z,19.09
2022-08-29T23:50:21.377Z,19.17
2022-08-29T23:52:50.579Z,19.18
2022-08-29T23:55:25.038Z,19.18
2022-08-29T23:58:04.633Z,19.24
